createdAt,value
2019-04-04T00:00:30.943Z,304.58
2019-04-04T00:01:30.934Z,305.07
2019-04-04T00:02:30.919Z,304.72
2019-04-04T00:03:30.920Z,304.45
2019-04-04T00:04:30.935Z,304.85
2019-04-04T00:05:30.917Z,304.82
2019-04-04T00:06:30.883Z,304.97
2019-04-04T00:07:30.877Z,304.50
2019-04-04T00:08:31.773Z,304.73
2019-04-04T00:09:32.847Z,304.76
2019-04-04T00:10:30.868Z,304.87
2019-04-04T00:11:30.825Z,304.83
2019-04-04T00:12:30.817Z,304.78
2019-04-04T00:13:30.816Z,304.53
2019-04-04T00:14:30.794Z,304.97
2019-04-04T00:15:30.786Z,304.85
2019-04-04T00:16:30.809Z,304.89
2019-04-04T00:17:30.762Z,305.24
2019-04-04T00:18:30.780Z,304.84
2019-04-04T00:19:30.740Z,304.99
2019-04-04T00:20:31.778Z,304.96
2019-04-04T00:21:32.038Z,305.03
2019-04-04T00:22:30.737Z,304.87
2019-04-04T00:23:30.697Z,304.81
2019-04-04T00:24:30.684Z,305.01
2019-04-04T00:25:30.670Z,304.17
2019-04-04T00:26:30.652Z,305.17
2019-04-04T00:27:30.637Z,304.47
2019-04-04T00:28:30.646Z,304.50
2019-04-04T00:29:30.628Z,304.73
2019-04-04T00:30:30.611Z,304.92
2019-04-04T00:31:30.592Z,304.54
2019-04-04T00:32:30.600Z,304.25
2019-04-04T00:33:30.583Z,304.76
2019-04-04T00:34:30.575Z,304.27
2019-04-04T00:35:31.151Z,304.57
2019-04-04T00:36:33.760Z,304.36
2019-04-04T00:37:30.541Z,304.68
2019-04-04T00:38:30.538Z,304.43
2019-04-04T00:39:30.502Z,304.69
2019-04-04T00:40:30.500Z,304.68
2019-04-04T00:41:30.497Z,305.13
2019-04-04T00:42:30.488Z,304.94
2019-04-04T00:43:30.496Z,304.45
2019-04-04T00:44:30.482Z,305.11
2019-04-04T00:45:30.440Z,304.50
2019-04-04T00:46:30.894Z,304.63
2019-04-04T00:47:32.407Z,305.12
2019-04-04T00:48:32.076Z,304.57
2019-04-04T00:49:30.407Z,304.77
2019-04-04T00:50:30.385Z,304.43
2019-04-04T00:51:30.368Z,305.26
2019-04-04T00:52:30.363Z,304.50
2019-04-04T00:53:30.355Z,304.81
2019-04-04T00:54:30.379Z,305.35
2019-04-04T00:55:30.341Z,304.57
2019-04-04T00:56:30.327Z,304.53
2019-04-04T00:57:30.305Z,304.26
2019-04-04T00:58:30.305Z,304.33
2019-04-04T00:59:30.311Z,304.55
2019-04-04T01:00:30.276Z,304.76
2019-04-04T01:01:30.269Z,304.38
2019-04-04T01:02:30.301Z,305.02
2019-04-04T01:03:30.727Z,305.37
2019-04-04T01:04:31.289Z,304.83
2019-04-04T01:05:32.041Z,304.52
2019-04-04T01:06:31.808Z,305.23
2019-04-04T01:07:30.208Z,304.67
2019-04-04T01:08:30.246Z,304.93
2019-04-04T01:09:30.183Z,305.01
2019-04-04T01:10:30.171Z,305.29
2019-04-04T01:11:30.156Z,304.86
2019-04-04T01:12:30.142Z,304.88
2019-04-04T01:13:30.136Z,304.40
2019-04-04T01:14:30.178Z,304.75
2019-04-04T01:15:31.297Z,304.52
2019-04-04T01:16:30.105Z,305.09
2019-04-04T01:17:30.098Z,304.87
2019-04-04T01:18:30.074Z,304.93
2019-04-04T01:19:30.095Z,304.62
2019-04-04T01:20:30.075Z,304.83
2019-04-04T01:21:30.044Z,304.87
2019-04-04T01:22:30.031Z,304.93
2019-04-04T01:23:30.012Z,304.57
2019-04-04T01:24:30.011Z,304.70
2019-04-04T01:25:32.001Z,304.63
2019-04-04T01:26:29.992Z,304.74
2019-04-04T01:27:29.982Z,304.56
2019-04-04T01:28:29.976Z,304.88
2019-04-04T01:29:29.955Z,304.75
2019-04-04T01:30:29.992Z,305.09
2019-04-04T01:31:29.936Z,304.33
2019-04-04T01:32:29.911Z,304.50
2019-04-04T01:33:29.944Z,304.45
2019-04-04T01:34:29.922Z,304.67
2019-04-04T01:35:29.895Z,305.40
2019-04-04T01:36:29.900Z,304.75
2019-04-04T01:37:29.876Z,304.59
2019-04-04T01:38:29.935Z,304.65
2019-04-04T01:39:31.223Z,303.99
2019-04-04T01:40:32.884Z,304.94
2019-04-04T01:41:29.852Z,304.72
2019-04-04T01:42:29.820Z,304.49
2019-04-04T01:43:29.811Z,305.00
2019-04-04T01:44:29.794Z,304.75
2019-04-04T01:45:29.782Z,304.88
2019-04-04T01:46:29.797Z,304.71
2019-04-04T01:47:29.760Z,304.29
2019-04-04T01:48:29.750Z,304.44
2019-04-04T01:49:29.738Z,304.40
2019-04-04T01:50:29.731Z,304.68
2019-04-04T01:51:29.752Z,304.42
2019-04-04T01:52:29.710Z,304.53
2019-04-04T01:53:30.158Z,304.40
2019-04-04T01:54:31.712Z,304.39
2019-04-04T01:55:29.663Z,304.05
2019-04-04T01:56:29.657Z,304.70
2019-04-04T01:57:29.663Z,304.48
2019-04-04T01:58:29.658Z,304.61
2019-04-04T01:59:29.631Z,304.39
2019-04-04T02:00:29.623Z,304.78
2019-04-04T02:01:29.597Z,304.59
2019-04-04T02:02:29.606Z,304.81
2019-04-04T02:03:29.575Z,304.09
2019-04-04T02:04:29.568Z,304.35
2019-04-04T02:05:29.563Z,304.28
2019-04-04T02:06:29.551Z,304.27
2019-04-04T02:07:29.839Z,304.75
2019-04-04T02:08:31.383Z,304.81
2019-04-04T02:09:29.521Z,304.72
2019-04-04T02:10:29.505Z,304.47
2019-04-04T02:11:29.495Z,304.48
2019-04-04T02:12:29.481Z,304.83
2019-04-04T02:13:29.493Z,304.88
2019-04-04T02:14:29.473Z,304.25
2019-04-04T02:15:29.455Z,304.85
2019-04-04T02:16:29.450Z,304.74
2019-04-04T02:17:29.440Z,304.60
2019-04-04T02:18:29.432Z,304.66
2019-04-04T02:19:29.419Z,304.59
2019-04-04T02:20:29.403Z,304.72
2019-04-04T02:21:29.383Z,304.63
2019-04-04T02:22:31.017Z,304.69
2019-04-04T02:23:31.477Z,304.80
2019-04-04T02:24:29.762Z,304.35
2019-04-04T02:25:29.330Z,305.06
2019-04-04T02:26:29.351Z,304.47
2019-04-04T02:27:29.318Z,304.46
2019-04-04T02:28:29.304Z,304.61
2019-04-04T02:29:29.314Z,304.35
2019-04-04T02:30:29.324Z,304.85
2019-04-04T02:31:29.276Z,304.99
2019-04-04T02:32:29.301Z,305.33
2019-04-04T02:33:32.212Z,304.52
2019-04-04T02:34:29.246Z,304.56
2019-04-04T02:35:29.225Z,304.81
2019-04-04T02:36:29.235Z,304.82
2019-04-04T02:37:29.220Z,305.19
2019-04-04T02:38:29.204Z,305.00
2019-04-04T02:39:29.244Z,304.71
2019-04-04T02:40:29.180Z,305.19
2019-04-04T02:41:29.202Z,305.05
2019-04-04T02:42:29.161Z,304.89
2019-04-04T02:43:29.153Z,304.87
2019-04-04T02:44:31.726Z,304.93
2019-04-04T02:45:29.119Z,304.65
2019-04-04T02:46:29.122Z,304.64
2019-04-04T02:47:29.094Z,304.79
2019-04-04T02:48:29.083Z,305.01
2019-04-04T02:49:29.537Z,304.16
2019-04-04T02:50:29.072Z,304.57
2019-04-04T02:51:29.078Z,305.15
2019-04-04T02:52:29.074Z,304.92
2019-04-04T02:53:29.040Z,304.61
2019-04-04T02:54:29.018Z,305.08
2019-04-04T02:55:30.913Z,304.87
2019-04-04T02:56:29.001Z,304.72
2019-04-04T02:57:28.987Z,304.81
2019-04-04T02:58:28.973Z,304.63
2019-04-04T02:59:28.955Z,304.86
2019-04-04T03:00:28.991Z,304.77
2019-04-04T03:01:31.612Z,305.05
2019-04-04T03:02:28.945Z,304.44
2019-04-04T03:03:28.925Z,304.94
2019-04-04T03:04:28.918Z,305.10
2019-04-04T03:05:28.929Z,305.08
2019-04-04T03:06:29.263Z,304.94
2019-04-04T03:07:30.967Z,304.65
2019-04-04T03:08:28.878Z,304.19
2019-04-04T03:09:28.866Z,304.89
2019-04-04T03:10:28.854Z,305.30
2019-04-04T03:11:28.848Z,304.67
2019-04-04T03:12:28.827Z,305.38
2019-04-04T03:13:31.509Z,305.05
2019-04-04T03:14:28.807Z,305.17
2019-04-04T03:15:28.809Z,305.22
2019-04-04T03:16:28.778Z,304.96
2019-04-04T03:17:31.652Z,305.18
2019-04-04T03:18:28.749Z,304.78
2019-04-04T03:19:28.763Z,305.04
2019-04-04T03:20:28.728Z,305.10
2019-04-04T03:21:28.739Z,305.47
2019-04-04T03:22:28.716Z,304.69
2019-04-04T03:23:32.954Z,305.11
2019-04-04T03:24:29.687Z,304.88
2019-04-04T03:25:28.688Z,305.17
2019-04-04T03:26:28.691Z,305.20
2019-04-04T03:27:28.669Z,305.38
2019-04-04T03:28:31.390Z,304.98
2019-04-04T03:29:28.638Z,304.87
2019-04-04T03:30:28.633Z,304.77
2019-04-04T03:31:36.158Z,305.03
2019-04-04T03:32:29.606Z,304.60
2019-04-04T03:33:31.313Z,305.02
2019-04-04T03:34:28.583Z,305.39
2019-04-04T03:35:29.486Z,304.84
2019-04-04T03:36:30.744Z,305.28
2019-04-04T03:37:28.594Z,304.59
2019-04-04T03:38:28.535Z,305.23
2019-04-04T03:39:28.512Z,304.84
2019-04-04T03:40:28.496Z,305.67
2019-04-04T03:41:30.679Z,304.81
2019-04-04T03:42:29.495Z,304.78
2019-04-04T03:43:28.482Z,305.11
2019-04-04T03:44:28.469Z,305.27
2019-04-04T03:45:28.462Z,304.55
2019-04-04T03:46:32.989Z,305.54
2019-04-04T03:47:29.443Z,305.38
2019-04-04T03:48:28.459Z,305.08
2019-04-04T03:49:28.402Z,305.10
2019-04-04T03:50:30.223Z,305.20
2019-04-04T03:51:28.392Z,304.55
2019-04-04T03:52:28.390Z,304.97
2019-04-04T03:53:28.392Z,305.53
2019-04-04T03:54:28.357Z,304.63
2019-04-04T03:55:28.685Z,304.53
2019-04-04T03:56:33.186Z,304.83
2019-04-04T03:57:29.324Z,304.98
2019-04-04T03:58:28.309Z,304.90
2019-04-04T03:59:29.583Z,305.13
2019-04-04T04:00:28.294Z,305.09
2019-04-04T04:01:28.310Z,305.54
2019-04-04T04:02:28.260Z,305.06
2019-04-04T04:03:28.248Z,305.31
2019-04-04T04:04:28.476Z,305.40
2019-04-04T04:05:33.599Z,305.10
2019-04-04T04:06:29.586Z,304.78
2019-04-04T04:07:28.228Z,304.92
2019-04-04T04:08:28.201Z,304.80
2019-04-04T04:09:28.205Z,304.90
2019-04-04T04:10:32.203Z,304.72
2019-04-04T04:11:29.192Z,305.06
2019-04-04T04:12:28.151Z,305.01
2019-04-04T04:13:28.144Z,305.44
2019-04-04T04:14:28.154Z,305.03
2019-04-04T04:15:30.407Z,305.32
2019-04-04T04:16:28.129Z,305.03
2019-04-04T04:17:28.104Z,305.06
2019-04-04T04:18:28.112Z,305.46
2019-04-04T04:19:30.967Z,304.87
2019-04-04T04:20:28.072Z,304.90
2019-04-04T04:21:28.049Z,304.98
2019-04-04T04:22:28.053Z,304.95
2019-04-04T04:23:28.053Z,305.34
2019-04-04T04:24:29.783Z,305.19
2019-04-04T04:25:28.016Z,305.30
2019-04-04T04:26:28.004Z,305.17
2019-04-04T04:27:28.030Z,305.12
2019-04-04T04:28:27.981Z,305.26
2019-04-04T04:29:29.894Z,305.41
2019-04-04T04:30:27.959Z,304.68
2019-04-04T04:31:28.772Z,305.04
2019-04-04T04:32:27.945Z,304.97
2019-04-04T04:33:29.313Z,304.93
2019-04-04T04:34:27.930Z,305.02
2019-04-04T04:35:27.894Z,304.67
2019-04-04T04:36:27.876Z,305.26
2019-04-04T04:37:27.923Z,304.52
2019-04-04T04:38:27.894Z,305.10
2019-04-04T04:39:27.854Z,305.09
2019-04-04T04:40:27.848Z,304.78
2019-04-04T04:41:27.841Z,305.19
2019-04-04T04:42:27.818Z,304.80
2019-04-04T04:43:32.491Z,305.35
2019-04-04T04:44:28.821Z,304.91
2019-04-04T04:45:27.793Z,305.05
2019-04-04T04:46:27.790Z,305.26
2019-04-04T04:47:27.763Z,305.16
2019-04-04T04:48:30.865Z,304.99
2019-04-04T04:49:27.765Z,304.96
2019-04-04T04:50:27.744Z,305.27
2019-04-04T04:51:27.728Z,305.65
2019-04-04T04:52:27.716Z,304.58
2019-04-04T04:53:27.689Z,305.48
2019-04-04T04:54:27.710Z,305.19
2019-04-04T04:55:28.178Z,305.06
2019-04-04T04:56:30.952Z,304.82
2019-04-04T04:57:30.047Z,305.38
2019-04-04T04:58:27.650Z,305.02
2019-04-04T04:59:27.634Z,305.55
2019-04-04T05:00:28.139Z,304.85
2019-04-04T05:01:27.622Z,305.42
2019-04-04T05:02:27.611Z,305.47
2019-04-04T05:03:27.587Z,305.33
2019-04-04T05:04:28.368Z,305.77
2019-04-04T05:05:31.155Z,305.07
2019-04-04T05:06:27.557Z,305.58
2019-04-04T05:07:27.554Z,305.29
2019-04-04T05:08:27.539Z,305.11
2019-04-04T05:09:27.515Z,305.67
2019-04-04T05:10:27.503Z,305.59
2019-04-04T05:11:27.505Z,305.57
2019-04-04T05:12:27.513Z,305.29
2019-04-04T05:13:28.886Z,305.31
2019-04-04T05:14:29.522Z,305.84
2019-04-04T05:15:27.464Z,305.79
2019-04-04T05:16:27.467Z,305.52
2019-04-04T05:17:27.430Z,305.31
2019-04-04T05:18:27.429Z,305.63
2019-04-04T05:19:27.449Z,305.49
2019-04-04T05:20:29.773Z,305.51
2019-04-04T05:21:28.817Z,305.75
2019-04-04T05:22:27.387Z,305.65
2019-04-04T05:23:27.360Z,305.39
2019-04-04T05:24:27.421Z,305.80
2019-04-04T05:25:30.866Z,305.55
2019-04-04T05:26:27.367Z,305.88
2019-04-04T05:27:27.332Z,305.77
2019-04-04T05:28:27.319Z,305.90
2019-04-04T05:29:27.286Z,306.00
2019-04-04T05:30:27.288Z,306.11
2019-04-04T05:31:27.287Z,305.70
2019-04-04T05:32:27.300Z,306.27
2019-04-04T05:33:28.066Z,305.53
2019-04-04T05:34:28.329Z,305.92
2019-04-04T05:35:27.240Z,305.99
2019-04-04T05:36:27.215Z,305.59
2019-04-04T05:37:27.613Z,306.29
2019-04-04T05:38:27.213Z,306.00
2019-04-04T05:39:27.193Z,306.31
2019-04-04T05:40:27.196Z,305.73
2019-04-04T05:41:27.968Z,306.10
2019-04-04T05:42:27.158Z,306.03
2019-04-04T05:43:27.178Z,305.87
2019-04-04T05:44:27.131Z,306.14
2019-04-04T05:45:27.142Z,306.53
2019-04-04T05:46:27.140Z,306.08
2019-04-04T05:47:27.110Z,306.22
2019-04-04T05:48:29.058Z,306.14
2019-04-04T05:49:27.095Z,306.42
2019-04-04T05:50:27.060Z,306.38
2019-04-04T05:51:27.068Z,306.05
2019-04-04T05:52:27.057Z,305.79
2019-04-04T05:53:27.031Z,306.12
2019-04-04T05:54:27.045Z,305.94
2019-04-04T05:55:27.027Z,306.33
2019-04-04T05:56:27.038Z,305.87
2019-04-04T05:57:27.019Z,306.24
2019-04-04T05:58:27.009Z,306.01
2019-04-04T05:59:27.003Z,305.69
2019-04-04T06:00:27.888Z,306.38
2019-04-04T06:01:26.940Z,306.02
2019-04-04T06:02:26.930Z,305.83
2019-04-04T06:03:26.939Z,306.10
2019-04-04T06:04:26.921Z,306.19
2019-04-04T06:05:27.306Z,306.45
2019-04-04T06:06:26.897Z,305.94
2019-04-04T06:07:26.908Z,305.62
2019-04-04T06:08:26.886Z,306.07
2019-04-04T06:09:26.860Z,305.96
2019-04-04T06:10:26.857Z,306.42
2019-04-04T06:11:26.854Z,306.58
2019-04-04T06:12:26.851Z,306.26
2019-04-04T06:13:26.966Z,306.24
2019-04-04T06:14:27.956Z,306.15
2019-04-04T06:15:26.788Z,306.38
2019-04-04T06:16:26.779Z,306.35
2019-04-04T06:17:27.046Z,306.09
2019-04-04T06:18:26.783Z,306.01
2019-04-04T06:19:26.762Z,306.38
2019-04-04T06:20:26.743Z,306.17
2019-04-04T06:21:26.768Z,306.59
2019-04-04T06:22:26.707Z,305.83
2019-04-04T06:23:26.736Z,306.12
2019-04-04T06:24:27.287Z,306.16
2019-04-04T06:25:26.681Z,305.64
2019-04-04T06:26:26.660Z,305.57
2019-04-04T06:27:26.643Z,306.11
2019-04-04T06:28:26.640Z,305.72
2019-04-04T06:29:26.659Z,305.70
2019-04-04T06:30:26.634Z,306.23
2019-04-04T06:31:30.655Z,306.09
2019-04-04T06:32:26.620Z,306.11
2019-04-04T06:33:26.613Z,306.28
2019-04-04T06:34:26.584Z,306.14
2019-04-04T06:35:26.566Z,306.13
2019-04-04T06:36:26.555Z,306.24
2019-04-04T06:37:26.564Z,306.19
2019-04-04T06:38:26.537Z,305.99
2019-04-04T06:39:26.584Z,305.44
2019-04-04T06:40:28.097Z,305.42
2019-04-04T06:41:28.153Z,305.97
2019-04-04T06:42:26.500Z,305.39
2019-04-04T06:43:26.487Z,305.20
2019-04-04T06:44:26.554Z,305.84
2019-04-04T06:45:26.457Z,305.43
2019-04-04T06:46:26.442Z,305.42
2019-04-04T06:47:26.440Z,305.77
2019-04-04T06:48:28.997Z,305.89
2019-04-04T06:49:28.752Z,305.95
2019-04-04T06:50:26.439Z,305.41
2019-04-04T06:51:26.406Z,306.13
2019-04-04T06:52:26.384Z,305.92
2019-04-04T06:53:26.365Z,306.54
2019-04-04T06:54:26.403Z,305.90
2019-04-04T06:55:28.472Z,306.21
2019-04-04T06:56:26.358Z,306.28
2019-04-04T06:57:26.333Z,305.98
2019-04-04T06:58:26.314Z,305.72
2019-04-04T06:59:26.299Z,305.94
2019-04-04T07:00:26.289Z,306.63
2019-04-04T07:01:26.303Z,306.27
2019-04-04T07:02:26.274Z,306.54
2019-04-04T07:03:27.922Z,306.19
2019-04-04T07:04:26.249Z,306.11
2019-04-04T07:05:26.235Z,305.83
2019-04-04T07:06:26.254Z,305.64
2019-04-04T07:07:26.219Z,306.01
2019-04-04T07:08:26.196Z,305.27
2019-04-04T07:09:26.195Z,305.33
2019-04-04T07:10:26.185Z,305.51
2019-04-04T07:11:26.166Z,305.96
2019-04-04T07:12:28.459Z,305.44
2019-04-04T07:13:27.920Z,305.70
2019-04-04T07:14:26.142Z,305.59
2019-04-04T07:15:26.144Z,305.91
2019-04-04T07:16:26.121Z,305.56
2019-04-04T07:17:26.122Z,305.37
2019-04-04T07:18:26.106Z,305.30
2019-04-04T07:19:26.078Z,305.42
2019-04-04T07:20:28.408Z,305.41
2019-04-04T07:21:26.063Z,305.51
2019-04-04T07:22:26.067Z,305.24
2019-04-04T07:23:28.246Z,305.84
2019-04-04T07:24:26.034Z,305.70
2019-04-04T07:25:26.009Z,305.31
2019-04-04T07:26:25.997Z,305.48
2019-04-04T07:27:25.993Z,305.20
2019-04-04T07:28:26.019Z,305.29
2019-04-04T07:29:26.122Z,305.98
2019-04-04T07:30:26.088Z,305.60
2019-04-04T07:31:25.944Z,305.42
2019-04-04T07:32:25.937Z,305.56
2019-04-04T07:33:25.954Z,304.82
2019-04-04T07:34:25.940Z,306.12
2019-04-04T07:35:25.916Z,305.75
2019-04-04T07:36:25.903Z,305.65
2019-04-04T07:37:25.902Z,305.18
2019-04-04T07:38:26.584Z,304.84
2019-04-04T07:39:25.922Z,304.89
2019-04-04T07:40:25.839Z,304.98
2019-04-04T07:41:25.845Z,305.10
2019-04-04T07:42:25.831Z,305.08
2019-04-04T07:43:25.835Z,304.73
2019-04-04T07:44:25.828Z,304.91
2019-04-04T07:45:26.727Z,304.87
2019-04-04T07:46:25.800Z,305.09
2019-04-04T07:47:25.782Z,304.57
2019-04-04T07:48:28.330Z,304.72
2019-04-04T07:49:25.780Z,304.72
2019-04-04T07:50:26.392Z,304.88
2019-04-04T07:51:25.742Z,304.21
2019-04-04T07:52:25.726Z,305.28
2019-04-04T07:53:28.048Z,304.74
2019-04-04T07:54:25.707Z,304.82
2019-04-04T07:55:25.714Z,304.89
2019-04-04T07:56:25.697Z,305.24
2019-04-04T07:57:25.681Z,304.38
2019-04-04T07:58:25.661Z,304.56
2019-04-04T07:59:25.655Z,304.95
2019-04-04T08:00:25.640Z,305.31
2019-04-04T08:01:25.658Z,304.75
2019-04-04T08:02:25.616Z,305.20
2019-04-04T08:03:25.648Z,305.53
2019-04-04T08:04:25.614Z,304.96
2019-04-04T08:05:25.585Z,305.15
2019-04-04T08:06:25.589Z,305.23
2019-04-04T08:07:25.586Z,305.56
2019-04-04T08:08:25.547Z,305.64
2019-04-04T08:09:26.319Z,305.48
2019-04-04T08:10:25.535Z,305.60
2019-04-04T08:11:25.537Z,305.85
2019-04-04T08:12:25.531Z,305.23
2019-04-04T08:13:25.494Z,305.05
2019-04-04T08:14:25.487Z,304.63
2019-04-04T08:15:25.475Z,304.64
2019-04-04T08:16:25.489Z,304.26
2019-04-04T08:17:25.454Z,303.86
2019-04-04T08:18:25.461Z,304.38
2019-04-04T08:19:25.441Z,304.09
2019-04-04T08:20:25.427Z,304.00
2019-04-04T08:21:25.411Z,303.64
2019-04-04T08:22:25.419Z,304.12
2019-04-04T08:23:25.388Z,304.28
2019-04-04T08:24:25.373Z,304.52
2019-04-04T08:25:25.365Z,304.63
2019-04-04T08:26:25.358Z,304.42
2019-04-04T08:27:25.379Z,304.87
2019-04-04T08:28:25.344Z,304.78
2019-04-04T08:29:25.389Z,305.24
2019-04-04T08:30:25.322Z,305.56
2019-04-04T08:31:25.306Z,305.46
2019-04-04T08:32:25.295Z,305.73
2019-04-04T08:33:25.274Z,305.91
2019-04-04T08:34:25.267Z,305.83
2019-04-04T08:35:25.288Z,305.27
2019-04-04T08:36:25.248Z,305.55
2019-04-04T08:37:25.232Z,305.96
2019-04-04T08:38:25.225Z,305.57
2019-04-04T08:39:25.266Z,305.75
2019-04-04T08:40:25.199Z,305.46
2019-04-04T08:41:25.219Z,305.61
2019-04-04T08:42:25.185Z,305.28
2019-04-04T08:43:25.168Z,304.78
2019-04-04T08:44:25.175Z,305.28
2019-04-04T08:45:25.149Z,304.80
2019-04-04T08:46:25.167Z,304.17
2019-04-04T08:47:25.125Z,304.05
2019-04-04T08:48:25.118Z,304.40
2019-04-04T08:49:25.102Z,304.16
2019-04-04T08:50:25.108Z,303.75
2019-04-04T08:51:25.091Z,303.83
2019-04-04T08:52:25.114Z,304.11
2019-04-04T08:53:25.055Z,303.58
2019-04-04T08:54:25.051Z,304.24
2019-04-04T08:55:25.038Z,303.64
2019-04-04T08:56:25.032Z,304.47
2019-04-04T08:57:25.046Z,304.20
2019-04-04T08:58:25.008Z,304.79
2019-04-04T08:59:24.988Z,305.26
2019-04-04T09:00:25.003Z,305.14
2019-04-04T09:01:24.972Z,305.30
2019-04-04T09:02:24.955Z,305.14
2019-04-04T09:03:24.972Z,305.36
2019-04-04T09:04:24.957Z,305.13
2019-04-04T09:05:24.930Z,305.40
2019-04-04T09:06:24.922Z,304.86
2019-04-04T09:07:24.925Z,304.16
2019-04-04T09:08:24.960Z,304.78
2019-04-04T09:09:24.913Z,304.27
2019-04-04T09:10:24.882Z,305.16
2019-04-04T09:11:24.872Z,305.09
2019-04-04T09:12:24.860Z,304.72
2019-04-04T09:13:24.877Z,305.32
2019-04-04T09:14:24.859Z,305.36
2019-04-04T09:15:24.834Z,305.41
2019-04-04T09:16:24.822Z,305.40
2019-04-04T09:17:24.818Z,305.74
2019-04-04T09:18:24.787Z,305.44
2019-04-04T09:19:24.797Z,305.37
2019-04-04T09:20:24.766Z,305.47
2019-04-04T09:21:24.758Z,305.59
2019-04-04T09:22:24.749Z,305.28
2019-04-04T09:23:24.747Z,305.37
2019-04-04T09:24:24.786Z,304.79
2019-04-04T09:25:24.720Z,304.60
2019-04-04T09:26:24.702Z,304.02
2019-04-04T09:27:24.699Z,304.88
2019-04-04T09:28:24.694Z,304.05
2019-04-04T09:29:24.672Z,304.24
2019-04-04T09:30:24.673Z,303.93
2019-04-04T09:31:24.647Z,304.07
2019-04-04T09:32:24.637Z,304.50
2019-04-04T09:33:24.629Z,304.55
2019-04-04T09:34:24.617Z,304.69
2019-04-04T09:35:24.619Z,304.59
2019-04-04T09:36:24.602Z,304.02
2019-04-04T09:37:24.588Z,303.62
2019-04-04T09:38:24.595Z,304.55
2019-04-04T09:39:24.568Z,303.98
2019-04-04T09:40:24.575Z,303.83
2019-04-04T09:41:24.574Z,304.05
2019-04-04T09:42:24.536Z,303.79
2019-04-04T09:43:24.532Z,303.80
2019-04-04T09:44:24.514Z,303.94
2019-04-04T09:45:24.507Z,303.43
2019-04-04T09:46:24.515Z,303.96
2019-04-04T09:47:24.482Z,303.67
2019-04-04T09:48:24.474Z,304.17
2019-04-04T09:49:24.463Z,303.54
2019-04-04T09:50:24.457Z,303.53
2019-04-04T09:51:24.503Z,303.59
2019-04-04T09:52:24.496Z,303.73
2019-04-04T09:53:24.590Z,303.68
2019-04-04T09:54:24.416Z,303.65
2019-04-04T09:55:24.394Z,303.46
2019-04-04T09:56:24.393Z,303.22
2019-04-04T09:57:24.396Z,303.02
2019-04-04T09:58:24.411Z,303.00
2019-04-04T09:59:24.359Z,302.99
2019-04-04T10:00:24.345Z,303.75
2019-04-04T10:01:24.351Z,302.80
2019-04-04T10:02:24.334Z,303.70
2019-04-04T10:03:24.384Z,303.23
2019-04-04T10:04:24.311Z,302.84
2019-04-04T10:05:24.298Z,302.92
2019-04-04T10:06:24.284Z,303.38
2019-04-04T10:07:25.295Z,303.54
2019-04-04T10:08:24.264Z,303.63
2019-04-04T10:09:24.268Z,303.62
2019-04-04T10:10:24.241Z,303.86
2019-04-04T10:11:24.236Z,304.42
2019-04-04T10:12:24.223Z,304.59
2019-04-04T10:13:24.220Z,303.88
2019-04-04T10:14:24.244Z,304.56
2019-04-04T10:15:24.187Z,303.87
2019-04-04T10:16:24.175Z,304.02
2019-04-04T10:17:24.211Z,303.77
2019-04-04T10:18:24.153Z,303.72
2019-04-04T10:19:24.142Z,303.94
2019-04-04T10:20:24.166Z,303.39
2019-04-04T10:21:24.147Z,304.14
2019-04-04T10:22:24.120Z,304.51
2019-04-04T10:23:24.112Z,304.30
2019-04-04T10:24:24.103Z,304.62
2019-04-04T10:25:24.086Z,303.58
2019-04-04T10:26:24.096Z,303.87
2019-04-04T10:27:24.066Z,303.70
2019-04-04T10:28:24.054Z,304.02
2019-04-04T10:29:24.040Z,304.10
2019-04-04T10:30:24.068Z,303.69
2019-04-04T10:31:24.022Z,303.39
2019-04-04T10:32:24.021Z,303.21
2019-04-04T10:33:23.997Z,303.36
2019-04-04T10:34:24.029Z,302.63
2019-04-04T10:35:23.974Z,302.49
2019-04-04T10:36:24.003Z,302.41
2019-04-04T10:37:23.957Z,301.63
2019-04-04T10:38:23.955Z,302.38
2019-04-04T10:39:29.056Z,302.44
2019-04-04T10:40:24.926Z,301.94
2019-04-04T10:41:23.925Z,302.55
2019-04-04T10:42:23.938Z,302.72
2019-04-04T10:43:23.898Z,302.80
2019-04-04T10:44:24.231Z,302.54
2019-04-04T10:45:23.882Z,302.70
2019-04-04T10:46:23.866Z,302.77
2019-04-04T10:47:24.401Z,302.27
2019-04-04T10:48:23.848Z,302.67
2019-04-04T10:49:23.849Z,301.83
2019-04-04T10:50:23.889Z,302.36
2019-04-04T10:51:23.825Z,302.72
2019-04-04T10:52:23.808Z,302.98
2019-04-04T10:53:23.797Z,303.73
2019-04-04T10:54:23.796Z,302.90
2019-04-04T10:55:23.825Z,302.84
2019-04-04T10:56:23.769Z,302.74
2019-04-04T10:57:23.781Z,303.82
2019-04-04T10:58:23.738Z,303.30
2019-04-04T10:59:23.759Z,303.29
2019-04-04T11:00:23.731Z,303.32
2019-04-04T11:01:23.735Z,302.19
2019-04-04T11:02:23.705Z,302.22
2019-04-04T11:03:23.713Z,302.34
2019-04-04T11:04:23.687Z,302.71
2019-04-04T11:05:23.713Z,302.04
2019-04-04T11:06:23.654Z,302.50
2019-04-04T11:07:23.643Z,303.05
2019-04-04T11:08:23.647Z,302.53
2019-04-04T11:09:23.628Z,302.25
2019-04-04T11:10:23.623Z,302.53
2019-04-04T11:11:23.631Z,302.28
2019-04-04T11:12:23.596Z,301.92
2019-04-04T11:13:33.514Z,302.21
2019-04-04T11:14:25.356Z,302.07
2019-04-04T11:15:23.558Z,301.92
2019-04-04T11:16:30.091Z,301.91
2019-04-04T11:17:24.544Z,302.24
2019-04-04T11:18:23.539Z,302.50
2019-04-04T11:19:31.014Z,302.43
2019-04-04T11:20:24.504Z,302.86
2019-04-04T11:21:23.608Z,302.58
2019-04-04T11:22:23.505Z,302.72
2019-04-04T11:23:23.482Z,303.26
2019-04-04T11:24:23.481Z,302.29
2019-04-04T11:25:23.462Z,302.29
2019-04-04T11:26:23.462Z,302.16
2019-04-04T11:27:23.438Z,302.30
2019-04-04T11:28:23.433Z,301.29
2019-04-04T11:29:23.416Z,301.41
2019-04-04T11:30:23.414Z,301.49
2019-04-04T11:31:23.430Z,301.81
2019-04-04T11:32:23.378Z,301.73
2019-04-04T11:33:23.378Z,301.85
2019-04-04T11:34:23.372Z,301.47
2019-04-04T11:35:23.386Z,302.65
2019-04-04T11:36:23.369Z,302.17
2019-04-04T11:37:23.335Z,302.26
2019-04-04T11:38:23.323Z,301.86
2019-04-04T11:39:23.312Z,301.30
2019-04-04T11:40:23.309Z,301.94
2019-04-04T11:41:23.324Z,301.96
2019-04-04T11:42:23.278Z,301.87
2019-04-04T11:43:23.264Z,302.36
2019-04-04T11:44:23.255Z,302.40
2019-04-04T11:45:23.322Z,302.67
2019-04-04T11:46:23.263Z,303.26
2019-04-04T11:47:23.244Z,302.73
2019-04-04T11:48:23.212Z,303.32
2019-04-04T11:49:23.208Z,302.92
2019-04-04T11:50:23.204Z,302.59
2019-04-04T11:51:23.191Z,303.53
2019-04-04T11:52:23.195Z,303.77
2019-04-04T11:53:23.169Z,303.27
2019-04-04T11:54:23.153Z,303.57
2019-04-04T11:55:23.151Z,302.88
2019-04-04T11:56:23.150Z,303.48
2019-04-04T11:57:24.005Z,302.85
2019-04-04T11:58:23.118Z,301.97
2019-04-04T11:59:23.132Z,302.80
2019-04-04T12:00:23.114Z,301.39
2019-04-04T12:01:23.118Z,301.58
2019-04-04T12:02:23.118Z,301.67
2019-04-04T12:03:23.081Z,301.32
2019-04-04T12:04:23.066Z,301.92
2019-04-04T12:05:23.071Z,301.33
2019-04-04T12:06:23.040Z,300.83
2019-04-04T12:07:23.061Z,300.92
2019-04-04T12:08:23.056Z,300.81
2019-04-04T12:09:23.039Z,300.54
2019-04-04T12:10:23.005Z,299.51
2019-04-04T12:11:22.990Z,300.16
2019-04-04T12:12:22.966Z,299.89
2019-04-04T12:13:22.974Z,300.38
2019-04-04T12:14:22.964Z,299.99
2019-04-04T12:15:22.938Z,300.15
2019-04-04T12:16:22.923Z,299.72
2019-04-04T12:17:22.948Z,299.50
2019-04-04T12:18:22.903Z,300.39
2019-04-04T12:19:22.919Z,300.19
2019-04-04T12:20:22.882Z,300.47
2019-04-04T12:21:22.879Z,300.90
2019-04-04T12:22:22.862Z,300.71
2019-04-04T12:23:22.887Z,300.62
2019-04-04T12:24:22.839Z,300.28
2019-04-04T12:25:22.830Z,301.07
2019-04-04T12:26:22.821Z,301.00
2019-04-04T12:27:22.807Z,301.02
2019-04-04T12:28:22.810Z,300.82